sensor_id;sensor_type;location;lat;lon;timestamp;temperature;humidity
5689;DHT22;2869;50.432;8.680;2022-11-23T00:01:42;6.00;99.90
5689;DHT22;2869;50.432;8.680;2022-11-23T00:04:11;6.00;99.90
5689;DHT22;2869;50.432;8.680;2022-11-23T00:06:38;6.00;99.90
5689;DHT22;2869;50.432;8.680;2022-11-23T00:09:05;6.00;99.90
5689;DHT22;2869;50.432;8.680;2022-11-23T00:11:35;6.00;99.90
5689;DHT22;2869;50.432;8.680;2022-11-23T00:14:02;6.00;99.90
5689;DHT22;2869;50.432;8.680;2022-11-23T00:16:29;6.00;99.90
5689;DHT22;2869;50.432;8.680;2022-11-23T00:18:58;6.00;99.90
5689;DHT22;2869;50.432;8.680;2022-11-23T00:21:26;6.00;99.90
5689;DHT22;2869;50.432;8.680;2022-11-23T00:23:53;6.00;99.90
5689;DHT22;2869;50.432;8.680;2022-11-23T00:26:20;6.00;99.90
5689;DHT22;2869;50.432;8.680;2022-11-23T00:28:49;6.00;99.90
5689;DHT22;2869;50.432;8.680;2022-11-23T00:31:17;6.00;99.90
5689;DHT22;2869;50.432;8.680;2022-11-23T00:33:47;6.00;99.90
5689;DHT22;2869;50.432;8.680;2022-11-23T00:36:14;6.00;99.90
5689;DHT22;2869;50.432;8.680;2022-11-23T00:38:42;6.00;99.90
5689;DHT22;2869;50.432;8.680;2022-11-23T00:41:11;6.00;99.90
5689;DHT22;2869;50.432;8.680;2022-11-23T00:43:39;6.00;99.90
5689;DHT22;2869;50.432;8.680;2022-11-23T00:46:09;5.90;99.90
5689;DHT22;2869;50.432;8.680;2022-11-23T00:48:38;5.90;99.90
5689;DHT22;2869;50.432;8.680;2022-11-23T00:51:06;5.90;99.90
5689;DHT22;2869;50.432;8.680;2022-11-23T00:53:33;5.90;99.90
5689;DHT22;2869;50.432;8.680;2022-11-23T00:56:00;5.90;99.90
5689;DHT22;2869;50.432;8.680;2022-11-23T00:58:27;5.90;99.90
5689;DHT22;2869;50.432;8.680;2022-11-23T01:01:02;5.90;99.90
5689;DHT22;2869;50.432;8.680;2022-11-23T01:03:31;5.90;99.90
5689;DHT22;2869;50.432;8.680;2022-11-23T01:06:02;6.00;99.90
5689;DHT22;2869;50.432;8.680;2022-11-23T01:08:29;6.00;99.90
5689;DHT22;2869;50.432;8.680;2022-11-23T01:10:58;6.00;99.90
5689;DHT22;2869;50.432;8.680;2022-11-23T01:13:25;6.00;99.90
5689;DHT22;2869;50.432;8.680;2022-11-23T01:15:52;6.00;99.90
5689;DHT22;2869;50.432;8.680;2022-11-23T01:18:19;6.10;99.90
5689;DHT22;2869;50.432;8.680;2022-11-23T01:20:47;6.10;99.90
5689;DHT22;2869;50.432;8.680;2022-11-23T01:23:14;6.10;99.90
5689;DHT22;2869;50.432;8.680;2022-11-23T01:25:40;6.10;99.90
5689;DHT22;2869;50.432;8.680;2022-11-23T01:28:07;6.10;99.90
5689;DHT22;2869;50.432;8.680;2022-11-23T01:30:34;6.10;99.90
5689;DHT22;2869;50.432;8.680;2022-11-23T01:33:01;6.10;99.90
5689;DHT22;2869;50.432;8.680;2022-11-23T01:35:28;6.10;99.90
5689;DHT22;2869;50.432;8.680;2022-11-23T01:37:56;6.10;99.90
5689;DHT22;2869;50.432;8.680;2022-11-23T01:40:23;6.20;99.90
5689;DHT22;2869;50.432;8.680;2022-11-23T01:42:53;6.20;99.90
5689;DHT22;2869;50.432;8.680;2022-11-23T01:45:35;6.20;99.90
5689;DHT22;2869;50.432;8.680;2022-11-23T01:48:06;6.20;99.90
5689;DHT22;2869;50.432;8.680;2022-11-23T01:50:35;6.20;99.90
5689;DHT22;2869;50.432;8.680;2022-11-23T01:53:03;6.20;99.90
5689;DHT22;2869;50.432;8.680;2022-11-23T01:55:30;6.20;99.90
5689;DHT22;2869;50.432;8.680;2022-11-23T01:57:57;6.20;99.90
5689;DHT22;2869;50.432;8.680;2022-11-23T02:00:23;6.30;99.90
5689;DHT22;2869;50.432;8.680;2022-11-23T02:02:54;6.30;99.90
5689;DHT22;2869;50.432;8.680;2022-11-23T02:05:26;6.30;99.90
5689;DHT22;2869;50.432;8.680;2022-11-23T02:07:54;6.30;99.90
5689;DHT22;2869;50.432;8.680;2022-11-23T02:10:22;6.30;99.90
5689;DHT22;2869;50.432;8.680;2022-11-23T02:12:49;6.30;99.90
5689;DHT22;2869;50.432;8.680;2022-11-23T02:15:16;6.30;99.90
5689;DHT22;2869;50.432;8.680;2022-11-23T02:17:43;6.30;99.90
5689;DHT22;2869;50.432;8.680;2022-11-23T02:20:12;6.30;99.90
5689;DHT22;2869;50.432;8.680;2022-11-23T02:22:48;6.30;99.90
5689;DHT22;2869;50.432;8.680;2022-11-23T02:25:24;6.30;99.90
5689;DHT22;2869;50.432;8.680;2022-11-23T02:27:55;6.30;99.90
5689;DHT22;2869;50.432;8.680;2022-11-23T02:30:23;6.30;99.90
5689;DHT22;2869;50.432;8.680;2022-11-23T02:32:49;6.30;99.90
5689;DHT22;2869;50.432;8.680;2022-11-23T02:35:16;6.30;99.90
5689;DHT22;2869;50.432;8.680;2022-11-23T02:37:43;6.30;99.90
5689;DHT22;2869;50.432;8.680;2022-11-23T02:40:13;6.30;99.90
5689;DHT22;2869;50.432;8.680;2022-11-23T02:42:43;6.30;99.90
5689;DHT22;2869;50.432;8.680;2022-11-23T02:45:20;6.30;99.90
5689;DHT22;2869;50.432;8.680;2022-11-23T02:47:50;6.30;99.90
5689;DHT22;2869;50.432;8.680;2022-11-23T02:50:17;6.30;99.90
5689;DHT22;2869;50.432;8.680;2022-11-23T02:52:43;6.30;99.90
5689;DHT22;2869;50.432;8.680;2022-11-23T02:55:10;6.30;99.90
5689;DHT22;2869;50.432;8.680;2022-11-23T02:57:37;6.30;99.90
5689;DHT22;2869;50.432;8.680;2022-11-23T03:00:04;6.30;99.90
5689;DHT22;2869;50.432;8.680;2022-11-23T03:02:33;6.30;99.90
5689;DHT22;2869;50.432;8.680;2022-11-23T03:04:59;6.30;99.90
5689;DHT22;2869;50.432;8.680;2022-11-23T03:07:26;6.30;99.90
5689;DHT22;2869;50.432;8.680;2022-11-23T03:09:53;6.40;99.90
5689;DHT22;2869;50.432;8.680;2022-11-23T03:12:19;6.30;99.90
5689;DHT22;2869;50.432;8.680;2022-11-23T03:14:46;6.40;99.90
5689;DHT22;2869;50.432;8.680;2022-11-23T03:17:12;6.40;99.90
5689;DHT22;2869;50.432;8.680;2022-11-23T03:19:40;6.40;99.90
5689;DHT22;2869;50.432;8.680;2022-11-23T03:22:07;6.40;99.90
5689;DHT22;2869;50.432;8.680;2022-11-23T03:24:34;6.40;99.90
5689;DHT22;2869;50.432;8.680;2022-11-23T03:27:01;6.40;99.90
5689;DHT22;2869;50.432;8.680;2022-11-23T03:29:27;6.40;99.90
5689;DHT22;2869;50.432;8.680;2022-11-23T03:31:54;6.40;99.90
5689;DHT22;2869;50.432;8.680;2022-11-23T03:34:21;6.40;99.90
5689;DHT22;2869;50.432;8.680;2022-11-23T03:36:49;6.40;99.90
5689;DHT22;2869;50.432;8.680;2022-11-23T03:39:16;6.40;99.90
5689;DHT22;2869;50.432;8.680;2022-11-23T03:41:43;6.40;99.90
5689;DHT22;2869;50.432;8.680;2022-11-23T03:44:09;6.40;99.90
5689;DHT22;2869;50.432;8.680;2022-11-23T03:46:36;6.40;99.90
5689;DHT22;2869;50.432;8.680;2022-11-23T03:49:03;6.40;99.90
5689;DHT22;2869;50.432;8.680;2022-11-23T03:51:30;6.40;99.90
5689;DHT22;2869;50.432;8.680;2022-11-23T03:53:58;6.40;99.90
5689;DHT22;2869;50.432;8.680;2022-11-23T03:56:24;6.40;99.90
5689;DHT22;2869;50.432;8.680;2022-11-23T03:58:51;6.50;99.90
5689;DHT22;2869;50.432;8.680;2022-11-23T04:01:18;6.50;99.90
5689;DHT22;2869;50.432;8.680;2022-11-23T04:03:44;6.50;99.90
5689;DHT22;2869;50.432;8.680;2022-11-23T04:06:11;6.40;99.90
5689;DHT22;2869;50.432;8.680;2022-11-23T04:08:38;6.50;99.90
5689;DHT22;2869;50.432;8.680;2022-11-23T04:11:06;6.50;99.90
5689;DHT22;2869;50.432;8.680;2022-11-23T04:13:32;6.50;99.90
5689;DHT22;2869;50.432;8.680;2022-11-23T04:15:59;6.50;99.90
5689;DHT22;2869;50.432;8.680;2022-11-23T04:18:26;6.50;99.90
5689;DHT22;2869;50.432;8.680;2022-11-23T04:20:53;6.50;99.90
5689;DHT22;2869;50.432;8.680;2022-11-23T04:23:19;6.50;99.90
5689;DHT22;2869;50.432;8.680;2022-11-23T04:25:46;6.50;99.90
5689;DHT22;2869;50.432;8.680;2022-11-23T04:28:14;6.50;99.90
5689;DHT22;2869;50.432;8.680;2022-11-23T04:30:41;6.50;99.90
5689;DHT22;2869;50.432;8.680;2022-11-23T04:33:07;6.50;99.90
5689;DHT22;2869;50.432;8.680;2022-11-23T04:35:35;6.40;99.90
5689;DHT22;2869;50.432;8.680;2022-11-23T04:38:02;6.40;99.90
5689;DHT22;2869;50.432;8.680;2022-11-23T04:40:29;6.40;99.90
5689;DHT22;2869;50.432;8.680;2022-11-23T04:42:56;6.30;99.90
5689;DHT22;2869;50.432;8.680;2022-11-23T04:45:24;6.30;99.90
5689;DHT22;2869;50.432;8.680;2022-11-23T04:47:51;6.30;99.90
5689;DHT22;2869;50.432;8.680;2022-11-23T04:50:17;6.30;99.90
5689;DHT22;2869;50.432;8.680;2022-11-23T04:52:44;6.40;99.90
5689;DHT22;2869;50.432;8.680;2022-11-23T04:55:11;6.30;99.90
5689;DHT22;2869;50.432;8.680;2022-11-23T04:57:37;6.30;99.90
5689;DHT22;2869;50.432;8.680;2022-11-23T05:00:05;6.30;99.90
5689;DHT22;2869;50.432;8.680;2022-11-23T05:02:33;6.30;99.90
5689;DHT22;2869;50.432;8.680;2022-11-23T05:05:00;6.30;99.90
5689;DHT22;2869;50.432;8.680;2022-11-23T05:07:26;6.30;99.90
5689;DHT22;2869;50.432;8.680;2022-11-23T05:09:53;6.30;99.90
5689;DHT22;2869;50.432;8.680;2022-11-23T05:12:20;6.30;99.90
5689;DHT22;2869;50.432;8.680;2022-11-23T05:14:46;6.30;99.90
5689;DHT22;2869;50.432;8.680;2022-11-23T05:17:13;6.30;99.90
5689;DHT22;2869;50.432;8.680;2022-11-23T05:19:41;6.30;99.90
5689;DHT22;2869;50.432;8.680;2022-11-23T05:22:09;6.30;99.90
5689;DHT22;2869;50.432;8.680;2022-11-23T05:24:36;6.40;99.90
5689;DHT22;2869;50.432;8.680;2022-11-23T05:27:03;6.40;99.90
5689;DHT22;2869;50.432;8.680;2022-11-23T05:29:29;6.30;99.90
5689;DHT22;2869;50.432;8.680;2022-11-23T05:31:56;6.30;99.90
5689;DHT22;2869;50.432;8.680;2022-11-23T05:34:23;6.30;99.90
5689;DHT22;2869;50.432;8.680;2022-11-23T05:36:51;6.30;99.90
5689;DHT22;2869;50.432;8.680;2022-11-23T05:39:17;6.20;99.90
5689;DHT22;2869;50.432;8.680;2022-11-23T05:41:44;6.20;99.90
5689;DHT22;2869;50.432;8.680;2022-11-23T05:44:11;6.20;99.90
5689;DHT22;2869;50.432;8.680;2022-11-23T05:46:37;6.10;99.90
5689;DHT22;2869;50.432;8.680;2022-11-23T05:49:04;6.10;99.90
5689;DHT22;2869;50.432;8.680;2022-11-23T05:51:31;6.00;99.90
5689;DHT22;2869;50.432;8.680;2022-11-23T05:54:00;6.00;99.90
5689;DHT22;2869;50.432;8.680;2022-11-23T05:56:27;6.00;99.90
5689;DHT22;2869;50.432;8.680;2022-11-23T05:58:54;6.00;99.90
5689;DHT22;2869;50.432;8.680;2022-11-23T06:01:21;5.90;99.90
5689;DHT22;2869;50.432;8.680;2022-11-23T06:03:48;5.90;99.90
5689;DHT22;2869;50.432;8.680;2022-11-23T06:06:15;5.90;99.90
5689;DHT22;2869;50.432;8.680;2022-11-23T06:08:41;5.90;99.90
5689;DHT22;2869;50.432;8.680;2022-11-23T06:11:09;5.90;99.90
5689;DHT22;2869;50.432;8.680;2022-11-23T06:13:36;5.80;99.90
5689;DHT22;2869;50.432;8.680;2022-11-23T06:16:03;5.80;99.90
5689;DHT22;2869;50.432;8.680;2022-11-23T06:18:30;5.80;99.90
5689;DHT22;2869;50.432;8.680;2022-11-23T06:20:58;5.80;99.90
5689;DHT22;2869;50.432;8.680;2022-11-23T06:23:25;5.80;99.90
5689;DHT22;2869;50.432;8.680;2022-11-23T06:25:52;5.80;99.90
5689;DHT22;2869;50.432;8.680;2022-11-23T06:28:20;5.80;99.90
5689;DHT22;2869;50.432;8.680;2022-11-23T06:30:47;5.80;99.90
5689;DHT22;2869;50.432;8.680;2022-11-23T06:33:13;5.80;99.90
5689;DHT22;2869;50.432;8.680;2022-11-23T06:35:40;5.80;99.90
5689;DHT22;2869;50.432;8.680;2022-11-23T06:38:07;5.80;99.90
5689;DHT22;2869;50.432;8.680;2022-11-23T06:40:34;5.80;99.90
5689;DHT22;2869;50.432;8.680;2022-11-23T06:43:00;5.90;99.90
5689;DHT22;2869;50.432;8.680;2022-11-23T06:45:28;5.90;99.90
5689;DHT22;2869;50.432;8.680;2022-11-23T06:47:55;5.90;99.90
5689;DHT22;2869;50.432;8.680;2022-11-23T06:50:22;5.90;99.90
5689;DHT22;2869;50.432;8.680;2022-11-23T06:52:53;5.90;99.90
5689;DHT22;2869;50.432;8.680;2022-11-23T06:55:20;5.90;99.90
5689;DHT22;2869;50.432;8.680;2022-11-23T06:57:47;5.90;99.90
5689;DHT22;2869;50.432;8.680;2022-11-23T07:00:14;5.90;99.90
5689;DHT22;2869;50.432;8.680;2022-11-23T07:02:43;5.90;99.90
5689;DHT22;2869;50.432;8.680;2022-11-23T07:05:09;6.00;99.90
5689;DHT22;2869;50.432;8.680;2022-11-23T07:07:36;6.00;99.90
5689;DHT22;2869;50.432;8.680;2022-11-23T07:10:04;6.00;99.90
5689;DHT22;2869;50.432;8.680;2022-11-23T07:12:30;6.00;99.90
5689;DHT22;2869;50.432;8.680;2022-11-23T07:14:57;6.00;99.90
5689;DHT22;2869;50.432;8.680;2022-11-23T07:17:24;6.00;99.90
5689;DHT22;2869;50.432;8.680;2022-11-23T07:19:52;6.00;99.90
5689;DHT22;2869;50.432;8.680;2022-11-23T07:22:18;6.00;99.90
5689;DHT22;2869;50.432;8.680;2022-11-23T07:24:45;6.10;99.90
5689;DHT22;2869;50.432;8.680;2022-11-23T07:27:12;6.10;99.90
5689;DHT22;2869;50.432;8.680;2022-11-23T07:29:38;6.10;99.90
5689;DHT22;2869;50.432;8.680;2022-11-23T07:32:05;6.20;99.90
5689;DHT22;2869;50.432;8.680;2022-11-23T07:34:33;6.20;99.90
5689;DHT22;2869;50.432;8.680;2022-11-23T07:37:01;6.20;99.90
5689;DHT22;2869;50.432;8.680;2022-11-23T07:39:28;6.20;99.90
5689;DHT22;2869;50.432;8.680;2022-11-23T07:41:55;6.20;99.90
5689;DHT22;2869;50.432;8.680;2022-11-23T07:44:22;6.20;99.90
5689;DHT22;2869;50.432;8.680;2022-11-23T07:46:51;6.20;99.90
5689;DHT22;2869;50.432;8.680;2022-11-23T07:49:18;6.20;99.90
5689;DHT22;2869;50.432;8.680;2022-11-23T07:51:45;6.20;99.90
5689;DHT22;2869;50.432;8.680;2022-11-23T07:54:13;6.20;99.90
5689;DHT22;2869;50.432;8.680;2022-11-23T07:56:40;6.20;99.90
5689;DHT22;2869;50.432;8.680;2022-11-23T07:59:07;6.20;99.90
5689;DHT22;2869;50.432;8.680;2022-11-23T08:01:34;6.30;99.90
5689;DHT22;2869;50.432;8.680;2022-11-23T08:04:00;6.30;99.90
5689;DHT22;2869;50.432;8.680;2022-11-23T08:06:28;6.30;99.90
5689;DHT22;2869;50.432;8.680;2022-11-23T08:08:54;6.30;99.90
5689;DHT22;2869;50.432;8.680;2022-11-23T08:11:22;6.30;99.90
5689;DHT22;2869;50.432;8.680;2022-11-23T08:13:49;6.40;99.90
5689;DHT22;2869;50.432;8.680;2022-11-23T08:16:17;6.40;99.90
5689;DHT22;2869;50.432;8.680;2022-11-23T08:18:44;6.30;99.90
5689;DHT22;2869;50.432;8.680;2022-11-23T08:21:11;6.40;99.90
5689;DHT22;2869;50.432;8.680;2022-11-23T08:23:37;6.40;99.90
5689;DHT22;2869;50.432;8.680;2022-11-23T08:26:04;6.30;99.90
5689;DHT22;2869;50.432;8.680;2022-11-23T08:28:32;6.30;99.90
5689;DHT22;2869;50.432;8.680;2022-11-23T08:31:05;6.30;99.90
5689;DHT22;2869;50.432;8.680;2022-11-23T08:33:31;6.30;99.90
5689;DHT22;2869;50.432;8.680;2022-11-23T08:36:02;6.40;99.90
5689;DHT22;2869;50.432;8.680;2022-11-23T08:38:30;6.50;99.90
5689;DHT22;2869;50.432;8.680;2022-11-23T08:40:57;6.60;99.90
5689;DHT22;2869;50.432;8.680;2022-11-23T08:43:24;6.80;99.90
5689;DHT22;2869;50.432;8.680;2022-11-23T08:45:54;6.90;99.90
5689;DHT22;2869;50.432;8.680;2022-11-23T08:48:20;6.90;99.90
5689;DHT22;2869;50.432;8.680;2022-11-23T08:50:47;7.00;99.90
5689;DHT22;2869;50.432;8.680;2022-11-23T08:53:14;7.00;99.90
5689;DHT22;2869;50.432;8.680;2022-11-23T08:55:41;7.00;99.90
5689;DHT22;2869;50.432;8.680;2022-11-23T08:58:08;7.00;99.90
5689;DHT22;2869;50.432;8.680;2022-11-23T09:00:35;7.10;99.90
5689;DHT22;2869;50.432;8.680;2022-11-23T09:03:03;7.00;99.90
5689;DHT22;2869;50.432;8.680;2022-11-23T09:05:30;7.00;99.90
5689;DHT22;2869;50.432;8.680;2022-11-23T09:07:59;7.00;99.90
5689;DHT22;2869;50.432;8.680;2022-11-23T09:10:26;7.00;99.90
5689;DHT22;2869;50.432;8.680;2022-11-23T09:12:52;7.20;99.90
5689;DHT22;2869;50.432;8.680;2022-11-23T09:15:20;7.30;99.90
5689;DHT22;2869;50.432;8.680;2022-11-23T09:17:46;7.30;99.90
5689;DHT22;2869;50.432;8.680;2022-11-23T09:20:15;7.20;99.90
5689;DHT22;2869;50.432;8.680;2022-11-23T09:22:41;7.10;99.90
5689;DHT22;2869;50.432;8.680;2022-11-23T09:25:08;7.10;99.90
5689;DHT22;2869;50.432;8.680;2022-11-23T09:27:35;7.10;99.90
5689;DHT22;2869;50.432;8.680;2022-11-23T09:30:02;7.10;99.90
5689;DHT22;2869;50.432;8.680;2022-11-23T09:32:31;7.10;99.90
5689;DHT22;2869;50.432;8.680;2022-11-23T09:34:57;7.10;99.90
5689;DHT22;2869;50.432;8.680;2022-11-23T09:37:26;7.10;99.90
5689;DHT22;2869;50.432;8.680;2022-11-23T09:39:52;7.10;99.90
5689;DHT22;2869;50.432;8.680;2022-11-23T09:42:44;7.20;99.90
5689;DHT22;2869;50.432;8.680;2022-11-23T09:45:20;7.50;99.90
5689;DHT22;2869;50.432;8.680;2022-11-23T09:48:10;7.70;99.90
5689;DHT22;2869;50.432;8.680;2022-11-23T09:50:45;7.90;99.90
5689;DHT22;2869;50.432;8.680;2022-11-23T09:53:16;8.10;99.90
5689;DHT22;2869;50.432;8.680;2022-11-23T09:55:47;8.20;99.90
5689;DHT22;2869;50.432;8.680;2022-11-23T09:58:16;8.20;99.90
5689;DHT22;2869;50.432;8.680;2022-11-23T10:00:46;8.30;99.90
5689;DHT22;2869;50.432;8.680;2022-11-23T10:03:15;8.30;99.90
5689;DHT22;2869;50.432;8.680;2022-11-23T10:05:46;8.50;99.90
5689;DHT22;2869;50.432;8.680;2022-11-23T10:08:20;8.70;99.90
5689;DHT22;2869;50.432;8.680;2022-11-23T10:10:55;9.00;99.90
5689;DHT22;2869;50.432;8.680;2022-11-23T10:13:32;9.20;99.90
5689;DHT22;2869;50.432;8.680;2022-11-23T10:16:13;9.40;99.90
5689;DHT22;2869;50.432;8.680;2022-11-23T10:18:48;9.60;99.90
5689;DHT22;2869;50.432;8.680;2022-11-23T10:21:25;9.60;99.90
5689;DHT22;2869;50.432;8.680;2022-11-23T10:24:04;9.70;99.90
5689;DHT22;2869;50.432;8.680;2022-11-23T10:26:37;9.90;99.90
5689;DHT22;2869;50.432;8.680;2022-11-23T10:29:12;10.00;99.90
5689;DHT22;2869;50.432;8.680;2022-11-23T10:31:40;9.90;99.90
5689;DHT22;2869;50.432;8.680;2022-11-23T10:34:11;9.70;99.90
5689;DHT22;2869;50.432;8.680;2022-11-23T10:36:39;9.40;99.90
5689;DHT22;2869;50.432;8.680;2022-11-23T10:39:16;9.10;99.90
5689;DHT22;2869;50.432;8.680;2022-11-23T10:41:43;8.70;99.90
5689;DHT22;2869;50.432;8.680;2022-11-23T10:44:26;8.50;99.90
5689;DHT22;2869;50.432;8.680;2022-11-23T10:46:54;8.40;99.90
5689;DHT22;2869;50.432;8.680;2022-11-23T10:49:22;8.60;99.90
5689;DHT22;2869;50.432;8.680;2022-11-23T10:51:51;9.00;99.90
5689;DHT22;2869;50.432;8.680;2022-11-23T10:54:26;9.40;99.90
5689;DHT22;2869;50.432;8.680;2022-11-23T10:56:53;9.40;99.90
5689;DHT22;2869;50.432;8.680;2022-11-23T10:59:29;9.30;99.90
5689;DHT22;2869;50.432;8.680;2022-11-23T11:02:16;9.10;99.90
5689;DHT22;2869;50.432;8.680;2022-11-23T11:04:44;9.00;99.90
5689;DHT22;2869;50.432;8.680;2022-11-23T11:07:21;8.80;99.90
5689;DHT22;2869;50.432;8.680;2022-11-23T11:09:51;8.80;99.90
5689;DHT22;2869;50.432;8.680;2022-11-23T11:12:18;8.80;99.90
5689;DHT22;2869;50.432;8.680;2022-11-23T11:14:55;8.90;99.90
5689;DHT22;2869;50.432;8.680;2022-11-23T11:17:25;8.90;99.90
5689;DHT22;2869;50.432;8.680;2022-11-23T11:19:52;9.00;99.90
5689;DHT22;2869;50.432;8.680;2022-11-23T11:22:31;9.40;99.90
5689;DHT22;2869;50.432;8.680;2022-11-23T11:25:00;9.80;99.90
5689;DHT22;2869;50.432;8.680;2022-11-23T11:27:29;9.90;99.90
5689;DHT22;2869;50.432;8.680;2022-11-23T11:30:03;9.90;99.90
5689;DHT22;2869;50.432;8.680;2022-11-23T11:32:37;9.80;99.90
5689;DHT22;2869;50.432;8.680;2022-11-23T11:35:10;9.60;99.90
5689;DHT22;2869;50.432;8.680;2022-11-23T11:37:41;9.50;99.90
5689;DHT22;2869;50.432;8.680;2022-11-23T11:40:18;9.40;99.90
5689;DHT22;2869;50.432;8.680;2022-11-23T11:42:51;9.30;99.90
5689;DHT22;2869;50.432;8.680;2022-11-23T11:45:23;9.10;99.90
5689;DHT22;2869;50.432;8.680;2022-11-23T11:47:55;9.10;99.90
5689;DHT22;2869;50.432;8.680;2022-11-23T11:50:24;9.20;99.90
5689;DHT22;2869;50.432;8.680;2022-11-23T11:52:57;9.40;99.90
5689;DHT22;2869;50.432;8.680;2022-11-23T11:55:32;9.90;99.90
5689;DHT22;2869;50.432;8.680;2022-11-23T11:58:03;10.00;99.90
5689;DHT22;2869;50.432;8.680;2022-11-23T12:00:41;9.90;99.90
5689;DHT22;2869;50.432;8.680;2022-11-23T12:03:13;10.10;99.90
5689;DHT22;2869;50.432;8.680;2022-11-23T12:05:46;10.30;99.90
5689;DHT22;2869;50.432;8.680;2022-11-23T12:08:17;10.40;99.90
5689;DHT22;2869;50.432;8.680;2022-11-23T12:10:50;10.50;99.90
5689;DHT22;2869;50.432;8.680;2022-11-23T12:13:19;10.70;99.90
5689;DHT22;2869;50.432;8.680;2022-11-23T12:15:51;10.80;99.90
5689;DHT22;2869;50.432;8.680;2022-11-23T12:18:35;11.00;99.90
5689;DHT22;2869;50.432;8.680;2022-11-23T12:21:07;11.00;99.90
5689;DHT22;2869;50.432;8.680;2022-11-23T12:23:49;10.80;99.90
5689;DHT22;2869;50.432;8.680;2022-11-23T12:26:23;10.40;99.90
5689;DHT22;2869;50.432;8.680;2022-11-23T12:29:10;10.10;99.90
5689;DHT22;2869;50.432;8.680;2022-11-23T12:31:46;10.10;99.90
5689;DHT22;2869;50.432;8.680;2022-11-23T12:34:24;10.10;99.90
5689;DHT22;2869;50.432;8.680;2022-11-23T12:37:21;10.00;99.90
5689;DHT22;2869;50.432;8.680;2022-11-23T12:40:09;9.90;99.90
5689;DHT22;2869;50.432;8.680;2022-11-23T12:42:43;10.00;99.90
5689;DHT22;2869;50.432;8.680;2022-11-23T12:45:21;10.30;99.90
5689;DHT22;2869;50.432;8.680;2022-11-23T12:47:56;10.60;99.90
5689;DHT22;2869;50.432;8.680;2022-11-23T12:50:29;10.70;99.90
5689;DHT22;2869;50.432;8.680;2022-11-23T12:53:07;11.00;99.90
5689;DHT22;2869;50.432;8.680;2022-11-23T12:55:48;11.20;99.90
5689;DHT22;2869;50.432;8.680;2022-11-23T12:58:24;11.30;99.90
5689;DHT22;2869;50.432;8.680;2022-11-23T13:00:54;11.50;99.90
5689;DHT22;2869;50.432;8.680;2022-11-23T13:07:09;11.50;99.90
5689;DHT22;2869;50.432;8.680;2022-11-23T13:10:08;11.50;99.90
5689;DHT22;2869;50.432;8.680;2022-11-23T13:13:04;11.30;99.90
5689;DHT22;2869;50.432;8.680;2022-11-23T13:15:43;11.20;99.90
5689;DHT22;2869;50.432;8.680;2022-11-23T13:18:16;11.20;99.90
5689;DHT22;2869;50.432;8.680;2022-11-23T13:21:01;11.30;99.90
5689;DHT22;2869;50.432;8.680;2022-11-23T13:23:34;11.20;99.90
5689;DHT22;2869;50.432;8.680;2022-11-23T13:26:14;11.10;99.90
5689;DHT22;2869;50.432;8.680;2022-11-23T13:28:42;11.00;99.90
5689;DHT22;2869;50.432;8.680;2022-11-23T13:31:23;11.00;99.90
5689;DHT22;2869;50.432;8.680;2022-11-23T13:33:52;10.90;99.90
5689;DHT22;2869;50.432;8.680;2022-11-23T13:36:40;10.80;99.90
5689;DHT22;2869;50.432;8.680;2022-11-23T13:42:24;10.70;99.90
5689;DHT22;2869;50.432;8.680;2022-11-23T13:45:21;10.90;99.90
5689;DHT22;2869;50.432;8.680;2022-11-23T13:48:13;11.00;99.90
5689;DHT22;2869;50.432;8.680;2022-11-23T13:50:56;10.90;99.90
5689;DHT22;2869;50.432;8.680;2022-11-23T13:53:25;10.80;99.90
5689;DHT22;2869;50.432;8.680;2022-11-23T13:55:56;10.70;99.90
5689;DHT22;2869;50.432;8.680;2022-11-23T13:58:39;10.70;99.90
5689;DHT22;2869;50.432;8.680;2022-11-23T14:01:06;10.60;99.90
5689;DHT22;2869;50.432;8.680;2022-11-23T14:03:49;10.70;99.90
5689;DHT22;2869;50.432;8.680;2022-11-23T14:06:33;10.80;99.90
5689;DHT22;2869;50.432;8.680;2022-11-23T14:09:05;10.80;99.90
5689;DHT22;2869;50.432;8.680;2022-11-23T14:11:41;10.80;99.90
5689;DHT22;2869;50.432;8.680;2022-11-23T14:14:17;10.80;99.90
5689;DHT22;2869;50.432;8.680;2022-11-23T14:17:02;10.70;99.90
5689;DHT22;2869;50.432;8.680;2022-11-23T14:19:56;10.60;99.90
5689;DHT22;2869;50.432;8.680;2022-11-23T14:22:36;10.50;99.90
5689;DHT22;2869;50.432;8.680;2022-11-23T14:25:17;10.50;99.90
5689;DHT22;2869;50.432;8.680;2022-11-23T14:27:58;10.40;99.90
5689;DHT22;2869;50.432;8.680;2022-11-23T14:30:38;10.30;99.90
5689;DHT22;2869;50.432;8.680;2022-11-23T14:33:19;10.30;99.90
5689;DHT22;2869;50.432;8.680;2022-11-23T14:35:56;10.20;99.90
5689;DHT22;2869;50.432;8.680;2022-11-23T14:38:55;10.00;99.90
5689;DHT22;2869;50.432;8.680;2022-11-23T14:41:30;9.80;99.90
5689;DHT22;2869;50.432;8.680;2022-11-23T14:43:59;9.60;99.90
5689;DHT22;2869;50.432;8.680;2022-11-23T14:46:26;9.40;99.90
5689;DHT22;2869;50.432;8.680;2022-11-23T14:49:02;9.30;99.90
5689;DHT22;2869;50.432;8.680;2022-11-23T14:51:32;9.20;99.90
5689;DHT22;2869;50.432;8.680;2022-11-23T14:54:01;9.10;99.90
5689;DHT22;2869;50.432;8.680;2022-11-23T14:56:35;9.10;99.90
5689;DHT22;2869;50.432;8.680;2022-11-23T14:59:04;9.00;99.90
5689;DHT22;2869;50.432;8.680;2022-11-23T15:01:32;9.00;99.90
5689;DHT22;2869;50.432;8.680;2022-11-23T15:04:07;8.90;99.90
5689;DHT22;2869;50.432;8.680;2022-11-23T15:06:39;8.80;99.90
5689;DHT22;2869;50.432;8.680;2022-11-23T15:09:14;8.70;99.90
5689;DHT22;2869;50.432;8.680;2022-11-23T15:11:42;8.60;99.90
5689;DHT22;2869;50.432;8.680;2022-11-23T15:14:16;8.50;99.90
5689;DHT22;2869;50.432;8.680;2022-11-23T15:16:43;8.40;99.90
5689;DHT22;2869;50.432;8.680;2022-11-23T15:19:17;8.40;99.90
5689;DHT22;2869;50.432;8.680;2022-11-23T15:21:46;8.30;99.90
5689;DHT22;2869;50.432;8.680;2022-11-23T15:24:20;8.20;99.90
5689;DHT22;2869;50.432;8.680;2022-11-23T15:26:47;8.10;99.90
5689;DHT22;2869;50.432;8.680;2022-11-23T15:29:28;8.10;99.90
5689;DHT22;2869;50.432;8.680;2022-11-23T15:31:54;8.00;99.90
5689;DHT22;2869;50.432;8.680;2022-11-23T15:34:21;7.90;99.90
5689;DHT22;2869;50.432;8.680;2022-11-23T15:36:50;7.90;99.90
5689;DHT22;2869;50.432;8.680;2022-11-23T15:39:18;7.70;99.90
5689;DHT22;2869;50.432;8.680;2022-11-23T15:41:46;7.70;99.90
5689;DHT22;2869;50.432;8.680;2022-11-23T15:44:20;7.70;99.90
5689;DHT22;2869;50.432;8.680;2022-11-23T15:46:50;7.90;99.90
5689;DHT22;2869;50.432;8.680;2022-11-23T15:49:17;8.10;99.90
5689;DHT22;2869;50.432;8.680;2022-11-23T15:51:45;8.40;99.90
5689;DHT22;2869;50.432;8.680;2022-11-23T15:54:16;8.50;99.90
5689;DHT22;2869;50.432;8.680;2022-11-23T15:56:45;8.30;99.90
5689;DHT22;2869;50.432;8.680;2022-11-23T15:59:26;8.20;99.90
5689;DHT22;2869;50.432;8.680;2022-11-23T16:01:54;8.00;99.90
5689;DHT22;2869;50.432;8.680;2022-11-23T16:04:25;7.80;99.90
5689;DHT22;2869;50.432;8.680;2022-11-23T16:06:52;7.60;99.90
5689;DHT22;2869;50.432;8.680;2022-11-23T16:09:37;7.50;99.90
5689;DHT22;2869;50.432;8.680;2022-11-23T16:12:19;7.30;99.90
5689;DHT22;2869;50.432;8.680;2022-11-23T16:14:46;7.10;99.90
5689;DHT22;2869;50.432;8.680;2022-11-23T16:17:16;7.00;99.90
5689;DHT22;2869;50.432;8.680;2022-11-23T16:19:48;6.90;99.90
5689;DHT22;2869;50.432;8.680;2022-11-23T16:22:21;6.80;99.90
5689;DHT22;2869;50.432;8.680;2022-11-23T16:24:57;6.70;99.90
5689;DHT22;2869;50.432;8.680;2022-11-23T16:27:25;6.60;99.90
5689;DHT22;2869;50.432;8.680;2022-11-23T16:29:53;6.60;99.90
5689;DHT22;2869;50.432;8.680;2022-11-23T16:32:22;6.50;99.90
5689;DHT22;2869;50.432;8.680;2022-11-23T16:34:49;6.40;99.90
5689;DHT22;2869;50.432;8.680;2022-11-23T16:37:16;6.40;99.90
5689;DHT22;2869;50.432;8.680;2022-11-23T16:39:43;6.30;99.90
5689;DHT22;2869;50.432;8.680;2022-11-23T16:42:12;6.30;99.90